Sand Spring Valley, Nevada Weather observations

Data are for 10 minute period ending at time listed.
 Day   Time   Solar   Ave.   Ave.  Ave.  Vector  Max.   Baro.   Total    
  of    of     Rad.   Air    Rel.  Wind   Wind   Wind  Press.  Precip.   
Year   Day            Temp.  Hum.  Speed  Dir.   Gust                    
2017   (PST)  Kw/m2    F      %     mph   deg.    mph    mb.     in.     
-------------------------------------------------------------------------
  84   22:00   0.00   34.4    88    5.0   241     5.6   852.1    0.00 
  84   22:10   0.00   34.3    88    5.2   218     6.4   852.2    0.00 
  84   22:20   0.00   34.1    89    4.5   230     5.6   852.2    0.00 
  84   22:30   0.00   34.4    89    4.8   241     6.1   852.3    0.00 
  84   22:40   0.00   34.8    88    6.0   238     6.9   852.3    0.00 
  84   22:50   0.00   35.9    86    5.9   234     7.1   852.4    0.00 
  84   23:00   0.00   35.5    85    4.6   230     6.2   852.3    0.00 
  84   23:10   0.00   34.6    86    4.9   214     6.5   852.3    0.00 
  84   23:20   0.00   33.3    87    4.2   212     5.1   852.3    0.00 
  84   23:30   0.00   33.0    88    3.8   222     4.7   852.3    0.00 
  84   23:40   0.00   33.1    89    2.9   165     4.9   852.3    0.00 
  84   23:50   0.00   33.7    89    1.6   176     3.3   852.2    0.00 
  85    0:00   0.00   34.1    88    2.8   218     3.7   852.1    0.00 
  85    0:10   0.00   33.5    87    4.4   239     5.3   852.2    0.00 
  85    0:20   0.00   32.7    88    4.0   253     5.1   852.4    0.00 
  85    0:30   0.00   32.4    89    3.1   281     4.0   852.4    0.00 
  85    0:40   0.00   32.2    89    4.7   287     5.8   852.3    0.00 
  85    0:50   0.00   31.6    88    5.0   285     6.5   852.5    0.00 
  85    1:00   0.00   31.4    89    4.6   270     5.7   852.4    0.00 
  85    1:10   0.00   32.0    89    5.6   254     6.7   852.3    0.00 
  85    1:20   0.00   31.9    88    3.9   254     5.7   852.3    0.00 
  85    1:30   0.00   31.8    88    3.8   252     4.8   852.2    0.00 
  85    1:40   0.00   31.5    87    2.8   210     3.7   852.0    0.00 
  85    1:50   0.00   30.5    87    3.4   197     4.5   851.9    0.00 
  85    2:00   0.00   30.1    88    3.2   205     4.1   851.8    0.00 
  85    2:10   0.00   30.0    90    3.3   206     4.1   851.8    0.00 
  85    2:20   0.00   29.5    90    3.8   228     4.4   851.8    0.00 
  85    2:30   0.00   29.0    91    3.7   269     4.7   851.9    0.00 
  85    2:40   0.00   29.4    91    4.3   264     5.8   851.9    0.00 
  85    2:50   0.00   30.0    91    3.9   244     5.3   851.8    0.00 
  85    3:00   0.00   29.8    90    3.3   238     3.9   851.8    0.00 
  85    3:10   0.00   29.1    90    2.2   256     2.9   851.8    0.00 
  85    3:20   0.00   29.3    90    2.6   247     3.1   851.8    0.00 
  85    3:30   0.00   28.8    90    2.2   230     3.1   851.7    0.00 
  85    3:40   0.00   28.2    90    2.4   251     3.5   851.7    0.00 
  85    3:50   0.00   28.2    91    3.6   260     4.2   851.8    0.00 
  85    4:00   0.00   28.0    90    3.9   244     4.5   851.7    0.00 
  85    4:10   0.00   27.9    91    4.4   251     5.0   851.7    0.00 
  85    4:20   0.00   28.2    91    4.4   249     4.8   851.7    0.00 
  85    4:30   0.00   28.1    90    4.3   248     4.8   851.7    0.00 
  85    4:40   0.00   27.7    90    3.7   247     4.2   851.8    0.00 
  85    4:50   0.00   27.7    91    3.8   244     4.4   851.8    0.00 
  85    5:00   0.00   27.4    90    4.1   246     4.6   851.9    0.00 
  85    5:10   0.00   27.0    90    3.4   240     4.3   852.0    0.00 
  85    5:20   0.00   26.5    90    1.8   238     2.6   852.1    0.00 
  85    5:30   0.00   26.2    91    1.9   237     2.4   852.3    0.00 
  85    5:40   0.00   26.2    91    2.0   237     2.7   852.4    0.00 
  85    5:50   0.00   25.6    91    3.4   229     4.2   852.4    0.00 
  85    6:00   0.00   26.2    91    2.8   229     4.2   852.4    0.00 
  85    6:10   0.00   27.2    91    1.0   229     2.0   852.3    0.00 
  85    6:20   0.00   29.0    90    0.1   228     1.2   852.4    0.00 
  85    6:30   0.00   29.2    89    1.2   240     2.0   852.5    0.00 
  85    6:40   0.00   30.0    89    1.9   284     2.6   852.6    0.00 
  85    6:50   0.00   30.9    88    3.6   294     4.6   852.7    0.00 
  85    7:00   0.00   31.6    88    2.4   294     3.1   852.7    0.00 
  85    7:10   0.00   33.3    88    1.5   285     2.3   852.8    0.00 
  85    7:20   0.00   34.9    86    1.3   288     2.6   852.8    0.00 
  85    7:30   0.00   37.0    84    0.4   287     1.8   852.9    0.00 
  85    7:40   0.00   38.4    78    0.1   303     1.4   852.9    0.00 
  85    7:50   0.00   38.9    72    0.9    21     2.7   852.8    0.00 
  85    8:00   0.00   38.7    74    1.2    34     2.3   852.9    0.00 
  85    8:10   0.00   39.4    74    1.4    37     3.1   852.9    0.00 
  85    8:20   0.00   41.0    72    1.5    40     3.2   852.8    0.00 
  85    8:30   0.00   42.9    66    1.1    73     2.9   852.7    0.00 
  85    8:40   0.00   42.7    65    0.8    47     2.6   852.7    0.00 
  85    8:50   0.00   44.5    63    1.3    83     3.8   852.7    0.00 
  85    9:00   0.00   44.6    62    1.1    17     3.4   852.5    0.00 
  85    9:10   0.00   46.4    59    1.1    43     3.4   852.3    0.00 
  85    9:20   0.00   46.5    59    1.1    70     3.7   852.3    0.00 
  85    9:30   0.00   47.5    59    1.4   105     3.7   852.2    0.00 
  85    9:40   0.00   48.5    56    1.6    72     4.2   852.1    0.00 
  85    9:50   0.00   47.8    57    2.2   311     4.4   852.2    0.00 
  85   10:00   0.00   48.3    55    2.1   325     4.1   852.3    0.00 
  85   10:10   0.00   50.6    52    0.0   321     0.5   852.3    0.00 
  85   10:20   0.00   51.0    49    0.8    90     2.9   852.2    0.00 
  85   10:30   0.00   52.1    48    0.8   170     2.3   852.1    0.00 
  85   10:40   0.00   52.3    50    1.7   140     3.9   852.0    0.00 
  85   10:50   0.00   52.4    50    2.2   146     4.4   852.0    0.00 
  85   11:00   0.00   54.2    45    2.7   184     5.7   852.1    0.00 
  85   11:10   0.00   54.5    44    1.8   195     4.5   852.0    0.00 
  85   11:20   0.00   55.5    43    2.8   198     9.7   851.9    0.00 
  85   11:30   0.00   55.2    42    5.2   135    11.8   851.6    0.00 
  85   11:40   0.00   55.8    42    6.0   150    11.3   851.6    0.00 
  85   11:50   0.00   55.4    42    7.4   167    12.4   851.5    0.00 
  85   12:00   0.00   55.3    43   10.3   174    15.6   851.4    0.00 
  85   12:10   0.00   55.6    44    9.5   205    16.0   851.4    0.00 
  85   12:20   0.00   56.2    44   11.1   202    15.9   851.4    0.00 
  85   12:30   0.00   56.6    42   11.8   197    18.1   851.2    0.00 
  85   12:40   0.00   57.1    43   12.5   198    18.4   851.1    0.00 
  85   12:50   0.00   58.2    42   12.0   206    16.6   851.0    0.00 
  85   13:00   0.00   58.5    39   11.5   178    19.6   850.7    0.00 
  85   13:10   0.00   57.7    40   12.3   180    17.5   850.5    0.00 
  85   13:20   0.00   57.6    40   12.8   181    16.7   850.5    0.00 
  85   13:30   0.00   58.5    40   11.7   192    20.0   850.5    0.00 
  85   13:40   0.00   58.1    42   10.4   197    16.0   850.5    0.00 
  85   13:50   0.00   57.3    42    9.7   194    15.3   850.4    0.00 
  85   14:00   0.00   57.1    42   12.3   189    18.0   850.3    0.00 
  85   14:10   0.00   57.3    42   13.2   195    17.6   850.2    0.00 
  85   14:20   0.00   57.8    42   12.8   189    23.4   849.9    0.00 
  85   14:30   0.00   58.1    40   12.5   177    18.9   850.0    0.00 
  85   14:40   0.00   59.3    39   13.6   194    19.4   849.8    0.00 
  85   14:50   0.00   58.6    40   15.5   199    21.2   849.7    0.00 
  85   15:00   0.00   59.1    38   15.2   183    21.5   849.7    0.00 
  85   15:10   0.00   57.6    42   15.5   209    22.8   849.9    0.00 
  85   15:20   0.00   58.6    41   15.2   195    20.6   849.9    0.00 
  85   15:30   0.00   59.9    38   15.3   190    21.6   849.6    0.00 
  85   15:40   0.00   60.3    37   13.9   192    20.7   849.6    0.00 
  85   15:50   0.00   59.8    36   15.4   192    23.6   849.6    0.00 
  85   16:00   0.00   58.5    36   13.7   184    20.2   849.5    0.00 
  85   16:10   0.00   60.3    33   15.1   176    22.8   849.4    0.00 
  85   16:20   0.00   59.0    33   13.9   196    23.2   849.4    0.00 
  85   16:30   0.00   57.2    34   13.6   197    18.9   849.4    0.00 
  85   16:40   0.00   58.1    32   13.7   189    18.0   849.5    0.00 
  85   16:50   0.00   57.6    33   13.6   197    21.6   849.5    0.00 
  85   17:00   0.00   57.4    34   13.9   196    20.6   849.4    0.00 
  85   17:10   0.00   57.3    35   13.9   195    19.1   849.3    0.00 
  85   17:20   0.00   56.6    36   13.5   201    17.8   849.3    0.00 
  85   17:30   0.00   55.9    38   12.4   203    17.6   849.3    0.00 
  85   17:40   0.00   55.5    39   11.4   197    16.5   849.3    0.00 
  85   17:50   0.00   55.4    40    9.9   199    14.3   849.3    0.00 
  85   18:00   0.00   55.0    41    9.7   195    14.7   849.2    0.00 
  85   18:10   0.00   54.4    39   10.7   193    16.2   849.0    0.00 
  85   18:20   0.00   54.0    38   10.3   190    14.4   849.0    0.00 
  85   18:30   0.00   53.5    38    9.9   187    13.8   849.1    0.00 
  85   18:40   0.00   52.9    39    8.6   182    11.9   849.1    0.00 
  85   18:50   0.00   52.2    40    7.5   178     9.9   849.1    0.00 
  85   19:00   0.00   51.4    43    7.3   181     9.7   849.1    0.00 
  85   19:10   0.00   49.9    46    7.4   185     9.1   849.2    0.00 
  85   19:20   0.00   48.2    51    5.2   200     7.6   849.4    0.00 
  85   19:30   0.00   45.1    59    4.9   206     5.7   849.4    0.00 
  85   19:40   0.00   44.9    59    4.9   208     5.9   849.5    0.00 
  85   19:50   0.00   44.3    61    5.4   215     6.2   849.6    0.00 
  85   20:00   0.00   44.7    60    4.4   206     5.9   849.6    0.00 
  85   20:10   0.00   45.3    57    4.5   190     6.1   849.7    0.00 
  85   20:20   0.00   45.6    56    5.8   205     7.1   849.7    0.00 
  85   20:30   0.00   45.0    58    6.7   218     8.2   849.7    0.00 
  85   20:40   0.00   45.1    57    4.5   202     6.6   849.7    0.00 
  85   20:50   0.00   45.7    54    4.0   202     5.1   849.6    0.00 
  85   21:00   0.00   45.3    54    4.2   239     5.1   849.5    0.00 
  85   21:10   0.00   42.1    62    1.5   262     4.6   849.5    0.00 
  85   21:20   0.00   43.5    59    4.6   276     6.4   849.5    0.00 
  85   21:30   0.00   44.1    58    5.9   270     7.2   849.5    0.00 
  85   21:40   0.00   43.5    61    6.7   266     8.2   849.4    0.00 
  85   21:50   0.00   45.5    55    5.5   246     8.4   849.4    0.00 

Return to Sand Spring Valley graphs page.


Western Regional Climate Center,wrcc@dri.edu